sensor_id;sensor_type;location;lat;lon;timestamp;pressure;altitude;pressure_sealevel;temperature;humidity
45247;BME280;31529;51.158;7.354;2023-05-10T00:00:05;97156.69;;;13.98;100.00
45247;BME280;31529;51.158;7.354;2023-05-10T00:00:37;97159.34;;;13.98;100.00
45247;BME280;31529;51.158;7.354;2023-05-10T00:01:08;97154.78;;;13.99;100.00
45247;BME280;31529;51.158;7.354;2023-05-10T00:01:39;97152.41;;;13.97;100.00
45247;BME280;31529;51.158;7.354;2023-05-10T00:02:10;97150.50;;;13.98;100.00
45247;BME280;31529;51.158;7.354;2023-05-10T00:02:42;97151.31;;;13.98;100.00
45247;BME280;31529;51.158;7.354;2023-05-10T00:03:13;97149.72;;;13.97;100.00
45247;BME280;31529;51.158;7.354;2023-05-10T00:03:44;97156.69;;;13.98;100.00
45247;BME280;31529;51.158;7.354;2023-05-10T00:04:15;97152.41;;;13.97;100.00
45247;BME280;31529;51.158;7.354;2023-05-10T00:04:46;97149.28;;;13.95;100.00
45247;BME280;31529;51.158;7.354;2023-05-10T00:05:17;97158.91;;;13.96;100.00
45247;BME280;31529;51.158;7.354;2023-05-10T00:05:48;97154.63;;;13.95;100.00
45247;BME280;31529;51.158;7.354;2023-05-10T00:06:19;97151.94;;;13.95;100.00
45247;BME280;31529;51.158;7.354;2023-05-10T00:06:51;97163.47;;;13.96;100.00
45247;BME280;31529;51.158;7.354;2023-05-10T00:07:22;97150.38;;;13.94;100.00
45247;BME280;31529;51.158;7.354;2023-05-10T00:07:53;97160.00;;;13.95;100.00
45247;BME280;31529;51.158;7.354;2023-05-10T00:08:24;97150.38;;;13.94;100.00
45247;BME280;31529;51.158;7.354;2023-05-10T00:08:55;97154.19;;;13.93;100.00
45247;BME280;31529;51.158;7.354;2023-05-10T00:09:26;97151.50;;;13.93;100.00
45247;BME280;31529;51.158;7.354;2023-05-10T00:09:57;97156.41;;;13.91;100.00
45247;BME280;31529;51.158;7.354;2023-05-10T00:10:28;97147.22;;;13.92;100.00
45247;BME280;31529;51.158;7.354;2023-05-10T00:11:00;97147.22;;;13.92;100.00
45247;BME280;31529;51.158;7.354;2023-05-10T00:11:31;97152.59;;;13.92;100.00
45247;BME280;31529;51.158;7.354;2023-05-10T00:12:02;97147.22;;;13.92;100.00
45247;BME280;31529;51.158;7.354;2023-05-10T00:12:33;97154.19;;;13.93;100.00
45247;BME280;31529;51.158;7.354;2023-05-10T00:13:04;97157.19;;;13.92;100.00
45247;BME280;31529;51.158;7.354;2023-05-10T00:13:35;97149.91;;;13.92;100.00
45247;BME280;31529;51.158;7.354;2023-05-10T00:14:06;97157.94;;;13.92;100.00
45247;BME280;31529;51.158;7.354;2023-05-10T00:14:37;97153.41;;;13.93;100.00
45247;BME280;31529;51.158;7.354;2023-05-10T00:15:09;97150.72;;;13.93;100.00
45247;BME280;31529;51.158;7.354;2023-05-10T00:15:40;97146.44;;;13.92;100.00
45247;BME280;31529;51.158;7.354;2023-05-10T00:16:11;97153.72;;;13.91;100.00
45247;BME280;31529;51.158;7.354;2023-05-10T00:16:43;97157.94;;;13.92;100.00
45247;BME280;31529;51.158;7.354;2023-05-10T00:17:14;97160.63;;;13.92;100.00
45247;BME280;31529;51.158;7.354;2023-05-10T00:17:45;97151.81;;;13.92;100.00
45247;BME280;31529;51.158;7.354;2023-05-10T00:18:16;97158.31;;;13.91;100.00
45247;BME280;31529;51.158;7.354;2023-05-10T00:18:47;97146.44;;;13.92;100.00
45247;BME280;31529;51.158;7.354;2023-05-10T00:19:19;97153.72;;;13.91;100.00
45247;BME280;31529;51.158;7.354;2023-05-10T00:19:50;97153.72;;;13.91;100.00
45247;BME280;31529;51.158;7.354;2023-05-10T00:20:21;97157.19;;;13.92;100.00
45247;BME280;31529;51.158;7.354;2023-05-10T00:20:54;97160.63;;;13.92;100.00
45247;BME280;31529;51.158;7.354;2023-05-10T00:21:25;97155.63;;;13.91;100.00
45247;BME280;31529;51.158;7.354;2023-05-10T00:21:58;97153.72;;;13.91;100.00
45247;BME280;31529;51.158;7.354;2023-05-10T00:22:30;97156.41;;;13.91;100.00
45247;BME280;31529;51.158;7.354;2023-05-10T00:23:02;97160.97;;;13.91;100.00
45247;BME280;31529;51.158;7.354;2023-05-10T00:23:33;97155.28;;;13.92;100.00
45247;BME280;31529;51.158;7.354;2023-05-10T00:24:04;97158.31;;;13.91;100.00
45247;BME280;31529;51.158;7.354;2023-05-10T00:24:35;97162.53;;;13.92;100.00
45247;BME280;31529;51.158;7.354;2023-05-10T00:25:06;97161.75;;;13.91;100.00
45247;BME280;31529;51.158;7.354;2023-05-10T00:25:38;97156.41;;;13.91;100.00
45247;BME280;31529;51.158;7.354;2023-05-10T00:26:09;97153.72;;;13.91;100.00
45247;BME280;31529;51.158;7.354;2023-05-10T00:26:40;97158.31;;;13.91;100.00
45247;BME280;31529;51.158;7.354;2023-05-10T00:27:12;97159.06;;;13.91;100.00
45247;BME280;31529;51.158;7.354;2023-05-10T00:27:44;97154.50;;;13.92;100.00
45247;BME280;31529;51.158;7.354;2023-05-10T00:28:15;97160.97;;;13.91;100.00
45247;BME280;31529;51.158;7.354;2023-05-10T00:28:46;97150.25;;;13.91;100.00
45247;BME280;31529;51.158;7.354;2023-05-10T00:29:17;97155.28;;;13.92;100.00
45247;BME280;31529;51.158;7.354;2023-05-10T00:29:48;97149.91;;;13.92;100.00
45247;BME280;31529;51.158;7.354;2023-05-10T00:30:19;97152.59;;;13.92;100.00
45247;BME280;31529;51.158;7.354;2023-05-10T00:30:50;97163.31;;;13.92;100.00
45247;BME280;31529;51.158;7.354;2023-05-10T00:31:21;97151.81;;;13.92;100.00
45247;BME280;31529;51.158;7.354;2023-05-10T00:31:52;97155.28;;;13.92;100.00
45247;BME280;31529;51.158;7.354;2023-05-10T00:32:23;97159.53;;;13.93;100.00
45247;BME280;31529;51.158;7.354;2023-05-10T00:32:54;97157.19;;;13.92;100.00
45247;BME280;31529;51.158;7.354;2023-05-10T00:33:25;97153.41;;;13.93;100.00
45247;BME280;31529;51.158;7.354;2023-05-10T00:33:57;97166.00;;;13.92;100.00
45247;BME280;31529;51.158;7.354;2023-05-10T00:34:28;97152.59;;;13.92;100.00
45247;BME280;31529;51.158;7.354;2023-05-10T00:34:59;97007.09;;;12.94;100.00
45247;BME280;31529;51.158;7.354;2023-05-10T00:35:30;97152.59;;;13.92;100.00
45247;BME280;31529;51.158;7.354;2023-05-10T00:36:01;97156.41;;;13.91;100.00
45247;BME280;31529;51.158;7.354;2023-05-10T00:36:32;97160.63;;;13.92;100.00
45247;BME280;31529;51.158;7.354;2023-05-10T00:37:03;97156.72;;;13.90;100.00
45247;BME280;31529;51.158;7.354;2023-05-10T00:37:34;97150.25;;;13.91;100.00
45247;BME280;31529;51.158;7.354;2023-05-10T00:38:05;97152.44;;;13.89;100.00
45247;BME280;31529;51.158;7.354;2023-05-10T00:38:36;97157.03;;;13.88;100.00
45247;BME280;31529;51.158;7.354;2023-05-10T00:39:08;97158.47;;;13.85;100.00
45247;BME280;31529;51.158;7.354;2023-05-10T00:39:39;97153.13;;;13.85;100.00
45247;BME280;31529;51.158;7.354;2023-05-10T00:40:10;97157.03;;;13.88;100.00
45247;BME280;31529;51.158;7.354;2023-05-10T00:40:41;97152.44;;;13.89;100.00
45247;BME280;31529;51.158;7.354;2023-05-10T00:41:13;97151.66;;;13.88;100.00
45247;BME280;31529;51.158;7.354;2023-05-10T00:41:44;97160.97;;;13.91;100.00
45247;BME280;31529;51.158;7.354;2023-05-10T00:42:15;97154.81;;;13.90;100.00
45247;BME280;31529;51.158;7.354;2023-05-10T00:42:46;97156.41;;;13.91;100.00
45247;BME280;31529;51.158;7.354;2023-05-10T00:43:18;97151.03;;;13.91;100.00
45247;BME280;31529;51.158;7.354;2023-05-10T00:43:49;97151.81;;;13.92;100.00
45247;BME280;31529;51.158;7.354;2023-05-10T00:44:20;97150.25;;;13.91;100.00
45247;BME280;31529;51.158;7.354;2023-05-10T00:44:51;97153.72;;;13.91;100.00
45247;BME280;31529;51.158;7.354;2023-05-10T00:45:22;97155.28;;;13.92;100.00
45247;BME280;31529;51.158;7.354;2023-05-10T00:45:53;97153.41;;;13.93;100.00
45247;BME280;31529;51.158;7.354;2023-05-10T00:46:25;97144.91;;;13.91;100.00
45247;BME280;31529;51.158;7.354;2023-05-10T00:46:56;97149.91;;;13.92;100.00
45247;BME280;31529;51.158;7.354;2023-05-10T00:47:28;97159.06;;;13.91;100.00
45247;BME280;31529;51.158;7.354;2023-05-10T00:48:00;97153.72;;;13.91;100.00
45247;BME280;31529;51.158;7.354;2023-05-10T00:48:33;97148.34;;;13.91;100.00
45247;BME280;31529;51.158;7.354;2023-05-10T00:49:05;97152.94;;;13.91;100.00
45247;BME280;31529;51.158;7.354;2023-05-10T00:49:37;97148.34;;;13.91;100.00
45247;BME280;31529;51.158;7.354;2023-05-10T00:50:08;97156.41;;;13.91;100.00
45247;BME280;31529;51.158;7.354;2023-05-10T00:50:40;97151.03;;;13.91;100.00
45247;BME280;31529;51.158;7.354;2023-05-10T00:51:11;97159.06;;;13.91;100.00
45247;BME280;31529;51.158;7.354;2023-05-10T00:51:42;97160.63;;;13.92;100.00
45247;BME280;31529;51.158;7.354;2023-05-10T00:52:15;97151.03;;;13.91;100.00
45247;BME280;31529;51.158;7.354;2023-05-10T00:52:46;97149.91;;;13.92;100.00
45247;BME280;31529;51.158;7.354;2023-05-10T00:53:17;97149.91;;;13.92;100.00
45247;BME280;31529;51.158;7.354;2023-05-10T00:53:49;97150.72;;;13.93;100.00
45247;BME280;31529;51.158;7.354;2023-05-10T00:54:21;97154.19;;;13.93;100.00
45247;BME280;31529;51.158;7.354;2023-05-10T00:54:53;97154.19;;;13.93;100.00
45247;BME280;31529;51.158;7.354;2023-05-10T00:55:25;97151.19;;;13.95;100.00
45247;BME280;31529;51.158;7.354;2023-05-10T00:55:56;97156.53;;;13.95;100.00
45247;BME280;31529;51.158;7.354;2023-05-10T00:56:27;97151.94;;;13.95;100.00
45247;BME280;31529;51.158;7.354;2023-05-10T00:57:00;97154.63;;;13.95;100.00
45247;BME280;31529;51.158;7.354;2023-05-10T00:57:31;97154.63;;;13.95;100.00
45247;BME280;31529;51.158;7.354;2023-05-10T00:58:03;97151.19;;;13.95;100.00
45247;BME280;31529;51.158;7.354;2023-05-10T00:58:35;97148.50;;;13.95;100.00
45247;BME280;31529;51.158;7.354;2023-05-10T00:59:07;97149.72;;;13.97;100.00
45247;BME280;31529;51.158;7.354;2023-05-10T00:59:39;97152.72;;;13.96;100.00
45247;BME280;31529;51.158;7.354;2023-05-10T01:00:10;97151.94;;;13.95;100.00
45247;BME280;31529;51.158;7.354;2023-05-10T01:00:42;97150.38;;;13.94;100.00
45247;BME280;31529;51.158;7.354;2023-05-10T01:01:17;97152.28;;;13.94;100.00
45247;BME280;31529;51.158;7.354;2023-05-10T01:01:48;97148.50;;;13.95;100.00
45247;BME280;31529;51.158;7.354;2023-05-10T01:02:19;97145.00;;;13.94;100.00
45247;BME280;31529;51.158;7.354;2023-05-10T01:02:50;97154.94;;;13.94;100.00
45247;BME280;31529;51.158;7.354;2023-05-10T01:03:21;97077.97;;;13.43;100.00
45247;BME280;31529;51.158;7.354;2023-05-10T01:03:52;97143.75;;;13.92;100.00
45247;BME280;31529;51.158;7.354;2023-05-10T01:04:24;97147.22;;;13.92;100.00
45247;BME280;31529;51.158;7.354;2023-05-10T01:04:56;97151.03;;;13.91;100.00
45247;BME280;31529;51.158;7.354;2023-05-10T01:05:27;97152.94;;;13.91;100.00
45247;BME280;31529;51.158;7.354;2023-05-10T01:05:58;97154.81;;;13.90;100.00
45247;BME280;31529;51.158;7.354;2023-05-10T01:06:29;97147.91;;;13.89;100.00
45247;BME280;31529;51.158;7.354;2023-05-10T01:07:00;97152.13;;;13.90;100.00
45247;BME280;31529;51.158;7.354;2023-05-10T01:07:32;97151.34;;;13.90;100.00
45247;BME280;31529;51.158;7.354;2023-05-10T01:08:03;97159.41;;;13.90;100.00
45247;BME280;31529;51.158;7.354;2023-05-10T01:08:34;97149.44;;;13.90;100.00
45247;BME280;31529;51.158;7.354;2023-05-10T01:09:05;97144.91;;;13.91;100.00
45247;BME280;31529;51.158;7.354;2023-05-10T01:09:37;97147.56;;;13.91;100.00
45247;BME280;31529;51.158;7.354;2023-05-10T01:10:08;97148.34;;;13.91;100.00
45247;BME280;31529;51.158;7.354;2023-05-10T01:10:40;97156.41;;;13.91;100.00
45247;BME280;31529;51.158;7.354;2023-05-10T01:11:11;97149.91;;;13.92;100.00
45247;BME280;31529;51.158;7.354;2023-05-10T01:11:42;97152.59;;;13.92;100.00
45247;BME280;31529;51.158;7.354;2023-05-10T01:12:13;97149.91;;;13.92;100.00
45247;BME280;31529;51.158;7.354;2023-05-10T01:12:45;97147.22;;;13.92;100.00
45247;BME280;31529;51.158;7.354;2023-05-10T01:13:39;97148.81;;;13.93;100.00
45247;BME280;31529;51.158;7.354;2023-05-10T01:14:11;97145.66;;;13.91;100.00
45247;BME280;31529;51.158;7.354;2023-05-10T01:14:42;97147.22;;;13.92;100.00
45247;BME280;31529;51.158;7.354;2023-05-10T01:15:14;97146.44;;;13.92;100.00
45247;BME280;31529;51.158;7.354;2023-05-10T01:15:46;97149.13;;;13.92;100.00
45247;BME280;31529;51.158;7.354;2023-05-10T01:16:18;97148.34;;;13.91;100.00
45247;BME280;31529;51.158;7.354;2023-05-10T01:16:49;97151.03;;;13.91;100.00
45247;BME280;31529;51.158;7.354;2023-05-10T01:17:20;97152.13;;;13.90;100.00
45247;BME280;31529;51.158;7.354;2023-05-10T01:17:52;97147.56;;;13.91;100.00
45247;BME280;31529;51.158;7.354;2023-05-10T01:18:24;97147.91;;;13.89;100.00
45247;BME280;31529;51.158;7.354;2023-05-10T01:18:57;97149.44;;;13.90;100.00
45247;BME280;31529;51.158;7.354;2023-05-10T01:19:29;97154.81;;;13.90;100.00
45247;BME280;31529;51.158;7.354;2023-05-10T01:20:02;97158.31;;;13.91;100.00
45247;BME280;31529;51.158;7.354;2023-05-10T01:20:35;97162.53;;;13.92;100.00
45247;BME280;31529;51.158;7.354;2023-05-10T01:22:02;97151.03;;;13.91;100.00
45247;BME280;31529;51.158;7.354;2023-05-10T01:23:07;97154.81;;;13.90;100.00
45247;BME280;31529;51.158;7.354;2023-05-10T01:24:55;97159.41;;;13.90;100.00
45247;BME280;31529;51.158;7.354;2023-05-10T01:26:54;97151.34;;;13.90;100.00
45247;BME280;31529;51.158;7.354;2023-05-10T01:28:53;97160.19;;;13.90;100.00
45247;BME280;31529;51.158;7.354;2023-05-10T01:31:22;97151.03;;;13.91;100.00
45247;BME280;31529;51.158;7.354;2023-05-10T01:34:27;97160.47;;;13.97;100.00
45247;BME280;31529;51.158;7.354;2023-05-10T01:35:10;97167.41;;;13.98;100.00
45247;BME280;31529;51.158;7.354;2023-05-10T01:36:42;97151.31;;;13.98;100.00
45247;BME280;31529;51.158;7.354;2023-05-10T01:37:25;97163.59;;;13.99;100.00
45247;BME280;31529;51.158;7.354;2023-05-10T01:39:01;97152.88;;;13.99;100.00
45247;BME280;31529;51.158;7.354;2023-05-10T01:39:47;97162.81;;;13.99;100.00
45247;BME280;31529;51.158;7.354;2023-05-10T01:40:26;97154.00;;;13.98;100.00
45247;BME280;31529;51.158;7.354;2023-05-10T01:41:16;97158.22;;;13.99;100.00
45247;BME280;31529;51.158;7.354;2023-05-10T01:41:57;97165.50;;;13.99;100.00
45247;BME280;31529;51.158;7.354;2023-05-10T01:43:00;97157.13;;;14.00;100.00
45247;BME280;31529;51.158;7.354;2023-05-10T01:43:42;97161.69;;;14.00;100.00
45247;BME280;31529;51.158;7.354;2023-05-10T01:44:54;97152.88;;;13.99;100.00
45247;BME280;31529;51.158;7.354;2023-05-10T01:45:40;97160.91;;;13.99;100.00
45247;BME280;31529;51.158;7.354;2023-05-10T01:46:27;97165.19;;;14.00;100.00
45247;BME280;31529;51.158;7.354;2023-05-10T01:47:10;97163.59;;;13.99;100.00
45247;BME280;31529;51.158;7.354;2023-05-10T01:47:50;97166.75;;;14.01;100.00
45247;BME280;31529;51.158;7.354;2023-05-10T01:48:25;97173.69;;;14.02;100.00
45247;BME280;31529;51.158;7.354;2023-05-10T01:49:00;97160.28;;;14.02;100.00
45247;BME280;31529;51.158;7.354;2023-05-10T01:49:36;97162.97;;;14.02;100.00
45247;BME280;31529;51.158;7.354;2023-05-10T01:50:17;97164.50;;;14.03;100.00
45247;BME280;31529;51.158;7.354;2023-05-10T01:50:53;97162.97;;;14.02;100.00
45247;BME280;31529;51.158;7.354;2023-05-10T01:51:26;97157.59;;;14.02;100.00
45247;BME280;31529;51.158;7.354;2023-05-10T01:52:02;97162.97;;;14.02;100.00
45247;BME280;31529;51.158;7.354;2023-05-10T01:52:38;97158.69;;;14.01;100.00
45247;BME280;31529;51.158;7.354;2023-05-10T01:53:13;97157.59;;;14.02;100.00
45247;BME280;31529;51.158;7.354;2023-05-10T01:53:49;97159.16;;;14.03;100.00
45247;BME280;31529;51.158;7.354;2023-05-10T01:54:24;97162.63;;;14.04;100.00
45247;BME280;31529;51.158;7.354;2023-05-10T01:54:58;97158.38;;;14.03;100.00
45247;BME280;31529;51.158;7.354;2023-05-10T01:55:33;97155.38;;;14.04;100.00
45247;BME280;31529;51.158;7.354;2023-05-10T01:56:10;97156.47;;;14.03;100.00
45247;BME280;31529;51.158;7.354;2023-05-10T01:56:43;97162.28;;;14.05;100.00
45247;BME280;31529;51.158;7.354;2023-05-10T01:57:17;97161.50;;;14.05;100.00
45247;BME280;31529;51.158;7.354;2023-05-10T01:57:55;97158.84;;;14.05;100.00
45247;BME280;31529;51.158;7.354;2023-05-10T01:58:32;97156.94;;;14.05;100.00
45247;BME280;31529;51.158;7.354;2023-05-10T01:59:08;97162.28;;;14.05;100.00
45247;BME280;31529;51.158;7.354;2023-05-10T01:59:44;97163.88;;;14.06;100.00
45247;BME280;31529;51.158;7.354;2023-05-10T02:00:18;97156.94;;;14.05;100.00
45247;BME280;31529;51.158;7.354;2023-05-10T02:00:51;97157.28;;;14.04;100.00
45247;BME280;31529;51.158;7.354;2023-05-10T02:01:23;97158.84;;;14.05;100.00
45247;BME280;31529;51.158;7.354;2023-05-10T02:01:57;97163.41;;;14.04;100.00
45247;BME280;31529;51.158;7.354;2023-05-10T02:02:33;97163.41;;;14.04;100.00
45247;BME280;31529;51.158;7.354;2023-05-10T02:03:08;97155.38;;;14.04;100.00
45247;BME280;31529;51.158;7.354;2023-05-10T02:03:40;97153.78;;;14.03;100.00
45247;BME280;31529;51.158;7.354;2023-05-10T02:04:15;97160.72;;;14.04;100.00
45247;BME280;31529;51.158;7.354;2023-05-10T02:04:48;97155.38;;;14.04;100.00
45247;BME280;31529;51.158;7.354;2023-05-10T02:05:21;97158.06;;;14.04;100.00
45247;BME280;31529;51.158;7.354;2023-05-10T02:05:53;97156.47;;;14.03;100.00
45247;BME280;31529;51.158;7.354;2023-05-10T02:06:26;97151.91;;;14.04;100.00
45247;BME280;31529;51.158;7.354;2023-05-10T02:06:57;97153.94;;;14.07;100.00
45247;BME280;31529;51.158;7.354;2023-05-10T02:07:29;97153.94;;;14.07;100.00
45247;BME280;31529;51.158;7.354;2023-05-10T02:08:03;97152.06;;;14.08;100.00
45247;BME280;31529;51.158;7.354;2023-05-10T02:08:37;97158.97;;;14.09;100.00
45247;BME280;31529;51.158;7.354;2023-05-10T02:09:10;97154.72;;;14.08;100.00
45247;BME280;31529;51.158;7.354;2023-05-10T02:09:44;97152.81;;;14.08;100.00
45247;BME280;31529;51.158;7.354;2023-05-10T02:10:19;97157.41;;;14.08;100.00
45247;BME280;31529;51.158;7.354;2023-05-10T02:10:52;97152.81;;;14.08;100.00
45247;BME280;31529;51.158;7.354;2023-05-10T02:11:25;97160.09;;;14.08;100.00
45247;BME280;31529;51.158;7.354;2023-05-10T02:11:59;97158.19;;;14.08;100.00
45247;BME280;31529;51.158;7.354;2023-05-10T02:12:36;97160.88;;;14.08;100.00
45247;BME280;31529;51.158;7.354;2023-05-10T02:13:11;97161.66;;;14.09;100.00
45247;BME280;31529;51.158;7.354;2023-05-10T02:13:44;97165.13;;;14.09;100.00
45247;BME280;31529;51.158;7.354;2023-05-10T02:14:18;97160.09;;;14.08;100.00
45247;BME280;31529;51.158;7.354;2023-05-10T02:14:50;97163.88;;;14.06;100.00
45247;BME280;31529;51.158;7.354;2023-05-10T02:15:23;97153.16;;;14.06;100.00
45247;BME280;31529;51.158;7.354;2023-05-10T02:15:55;97162.78;;;14.08;100.00
45247;BME280;31529;51.158;7.354;2023-05-10T02:16:28;97156.59;;;14.07;100.00
45247;BME280;31529;51.158;7.354;2023-05-10T02:17:01;97160.09;;;14.08;100.00
45247;BME280;31529;51.158;7.354;2023-05-10T02:17:36;97165.47;;;14.08;100.00
45247;BME280;31529;51.158;7.354;2023-05-10T02:18:09;97163.56;;;14.08;100.00
45247;BME280;31529;51.158;7.354;2023-05-10T02:18:42;97164.34;;;14.09;100.00
45247;BME280;31529;51.158;7.354;2023-05-10T02:19:13;97167.00;;;14.09;100.00
45247;BME280;31529;51.158;7.354;2023-05-10T02:19:47;97164.34;;;14.09;100.00
45247;BME280;31529;51.158;7.354;2023-05-10T02:20:18;97165.13;;;14.09;100.00
45247;BME280;31529;51.158;7.354;2023-05-10T02:20:51;97167.34;;;14.07;100.00
45247;BME280;31529;51.158;7.354;2023-05-10T02:21:24;97164.66;;;14.07;100.00
45247;BME280;31529;51.158;7.354;2023-05-10T02:21:58;97170.81;;;14.08;100.00
45247;BME280;31529;51.158;7.354;2023-05-10T02:22:31;97163.88;;;14.06;100.00
45247;BME280;31529;51.158;7.354;2023-05-10T02:23:03;97128.19;;;13.85;100.00
45247;BME280;31529;51.158;7.354;2023-05-10T02:23:36;97165.47;;;14.08;100.00
45247;BME280;31529;51.158;7.354;2023-05-10T02:24:08;97169.25;;;14.06;100.00
45247;BME280;31529;51.158;7.354;2023-05-10T02:24:41;97166.25;;;14.08;100.00
45247;BME280;31529;51.158;7.354;2023-05-10T02:25:16;97170.16;;;14.11;100.00
45247;BME280;31529;51.158;7.354;2023-05-10T02:25:49;97167.16;;;14.12;100.00
45247;BME280;31529;51.158;7.354;2023-05-10T02:26:23;97164.16;;;14.14;100.00
45247;BME280;31529;51.158;7.354;2023-05-10T02:26:56;97172.19;;;14.14;100.00
45247;BME280;31529;51.158;7.354;2023-05-10T02:27:28;97169.53;;;14.14;100.00
45247;BME280;31529;51.158;7.354;2023-05-10T02:28:01;97166.84;;;14.14;100.00
45247;BME280;31529;51.158;7.354;2023-05-10T02:28:34;97169.53;;;14.14;100.00
45247;BME280;31529;51.158;7.354;2023-05-10T02:29:06;97171.06;;;14.15;100.00
45247;BME280;31529;51.158;7.354;2023-05-10T02:29:39;97166.84;;;14.14;100.00
45247;BME280;31529;51.158;7.354;2023-05-10T02:30:11;97171.06;;;14.15;100.00
45247;BME280;31529;51.158;7.354;2023-05-10T02:30:43;97174.88;;;14.14;100.00
45247;BME280;31529;51.158;7.354;2023-05-10T02:31:14;97169.97;;;14.16;100.00
45247;BME280;31529;51.158;7.354;2023-05-10T02:31:46;97171.88;;;14.15;100.00
45247;BME280;31529;51.158;7.354;2023-05-10T02:32:18;97173.44;;;14.16;100.00
45247;BME280;31529;51.158;7.354;2023-05-10T02:32:51;97178.47;;;14.18;100.00
45247;BME280;31529;51.158;7.354;2023-05-10T02:33:22;97170.44;;;14.18;100.00
45247;BME280;31529;51.158;7.354;2023-05-10T02:33:54;97170.44;;;14.18;100.00
45247;BME280;31529;51.158;7.354;2023-05-10T02:34:26;97170.88;;;14.20;100.00
45247;BME280;31529;51.158;7.354;2023-05-10T02:34:58;97062.94;;;13.51;100.00
45247;BME280;31529;51.158;7.354;2023-05-10T02:35:33;97167.88;;;14.21;100.00
45247;BME280;31529;51.158;7.354;2023-05-10T02:36:07;97170.25;;;14.23;100.00
45247;BME280;31529;51.158;7.354;2023-05-10T02:36:39;97168.34;;;14.23;100.00
45247;BME280;31529;51.158;7.354;2023-05-10T02:37:13;97172.94;;;14.23;100.00
45247;BME280;31529;51.158;7.354;2023-05-10T02:37:46;97177.16;;;14.24;100.00
45247;BME280;31529;51.158;7.354;2023-05-10T02:38:19;97176.41;;;14.23;100.00
45247;BME280;31529;51.158;7.354;2023-05-10T02:38:51;97168.03;;;14.25;100.00
45247;BME280;31529;51.158;7.354;2023-05-10T02:39:24;97176.06;;;14.25;100.00
45247;BME280;31529;51.158;7.354;2023-05-10T02:39:56;97174.50;;;14.24;100.00
45247;BME280;31529;51.158;7.354;2023-05-10T02:40:28;97170.72;;;14.25;100.00
45247;BME280;31529;51.158;7.354;2023-05-10T02:41:01;97169.56;;;14.26;100.00
45247;BME280;31529;51.158;7.354;2023-05-10T02:41:33;97172.25;;;14.26;100.00
45247;BME280;31529;51.158;7.354;2023-05-10T02:42:04;97167.69;;;14.27;100.00
45247;BME280;31529;51.158;7.354;2023-05-10T02:42:37;97178.09;;;14.28;100.00
45247;BME280;31529;51.158;7.354;2023-05-10T02:43:10;97169.25;;;14.28;100.00
45247;BME280;31529;51.158;7.354;2023-05-10T02:43:44;97173.84;;;14.27;100.00
45247;BME280;31529;51.158;7.354;2023-05-10T02:44:19;97165.78;;;14.27;100.00
45247;BME280;31529;51.158;7.354;2023-05-10T02:44:52;97173.06;;;14.27;100.00
45247;BME280;31529;51.158;7.354;2023-05-10T02:45:26;97174.94;;;14.26;100.00
45247;BME280;31529;51.158;7.354;2023-05-10T02:45:59;97173.84;;;14.27;100.00
45247;BME280;31529;51.158;7.354;2023-05-10T02:46:31;97172.25;;;14.26;100.00
45247;BME280;31529;51.158;7.354;2023-05-10T02:47:02;97174.94;;;14.26;100.00
45247;BME280;31529;51.158;7.354;2023-05-10T02:47:34;97173.72;;;14.23;100.00
45247;BME280;31529;51.158;7.354;2023-05-10T02:48:05;97171.03;;;14.23;100.00
45247;BME280;31529;51.158;7.354;2023-05-10T02:48:37;97172.13;;;14.22;100.00
45247;BME280;31529;51.158;7.354;2023-05-10T02:49:09;97176.72;;;14.22;100.00
45247;BME280;31529;51.158;7.354;2023-05-10T02:49:40;97177.84;;;14.21;100.00
45247;BME280;31529;51.158;7.354;2023-05-10T02:50:11;97175.47;;;14.19;100.00
45247;BME280;31529;51.158;7.354;2023-05-10T02:50:43;97174.66;;;14.19;100.00
45247;BME280;31529;51.158;7.354;2023-05-10T02:51:16;97170.44;;;14.18;100.00
45247;BME280;31529;51.158;7.354;2023-05-10T02:51:55;97173.13;;;14.18;100.00
45247;BME280;31529;51.158;7.354;2023-05-10T02:52:41;97180.38;;;14.17;100.00
45247;BME280;31529;51.158;7.354;2023-05-10T02:53:15;97176.91;;;14.17;100.00
45247;BME280;31529;51.158;7.354;2023-05-10T02:53:52;97178.03;;;14.16;100.00
45247;BME280;31529;51.158;7.354;2023-05-10T02:54:27;97175.34;;;14.16;100.00
45247;BME280;31529;51.158;7.354;2023-05-10T02:55:02;97173.44;;;14.16;100.00
45247;BME280;31529;51.158;7.354;2023-05-10T02:55:36;97179.94;;;14.15;100.00
45247;BME280;31529;51.158;7.354;2023-05-10T02:56:15;97177.25;;;14.15;100.00
45247;BME280;31529;51.158;7.354;2023-05-10T02:56:56;97179.13;;;14.15;100.00
45247;BME280;31529;51.158;7.354;2023-05-10T02:57:31;97178.34;;;14.14;100.00
45247;BME280;31529;51.158;7.354;2023-05-10T02:58:04;97180.25;;;14.14;100.00
45247;BME280;31529;51.158;7.354;2023-05-10T02:58:35;97182.13;;;14.13;100.00
45247;BME280;31529;51.158;7.354;2023-05-10T02:59:06;97179.44;;;14.13;100.00
45247;BME280;31529;51.158;7.354;2023-05-10T02:59:37;97178.97;;;14.11;100.00
45247;BME280;31529;51.158;7.354;2023-05-10T03:00:09;97181.34;;;14.13;100.00
45247;BME280;31529;51.158;7.354;2023-05-10T03:00:40;97180.88;;;14.11;100.00
45247;BME280;31529;51.158;7.354;2023-05-10T03:01:11;97184.34;;;14.11;100.00
45247;BME280;31529;51.158;7.354;2023-05-10T03:01:42;97187.38;;;14.10;100.00
45247;BME280;31529;51.158;7.354;2023-05-10T03:02:13;97177.44;;;14.10;100.00
45247;BME280;31529;51.158;7.354;2023-05-10T03:02:44;97184.69;;;14.10;100.00
45247;BME280;31529;51.158;7.354;2023-05-10T03:03:15;97180.44;;;14.09;100.00
45247;BME280;31529;51.158;7.354;2023-05-10T03:03:47;97183.44;;;14.07;100.00
45247;BME280;31529;51.158;7.354;2023-05-10T03:04:18;97179.97;;;14.06;100.00
45247;BME280;31529;51.158;7.354;2023-05-10T03:04:49;97174.28;;;14.08;100.00